createdAt,value
2018-02-08T00:00:48.970Z,75.95
2018-02-08T00:03:23.612Z,76.09
2018-02-08T00:05:58.338Z,76.15
2018-02-08T00:08:33.597Z,76.18
2018-02-08T00:11:08.034Z,76.16
2018-02-08T00:13:42.530Z,76.16
2018-02-08T00:16:17.394Z,76.15
2018-02-08T00:18:52.394Z,76.14
2018-02-08T00:21:27.797Z,76.16
2018-02-08T00:24:02.875Z,76.17
2018-02-08T00:26:37.997Z,76.24
2018-02-08T00:29:13.370Z,76.19
2018-02-08T00:31:48.873Z,76.17
2018-02-08T00:34:23.545Z,76.22
2018-02-08T00:36:59.006Z,76.30
2018-02-08T00:39:34.212Z,76.38
2018-02-08T00:42:09.403Z,76.53
2018-02-08T00:44:44.079Z,76.74
2018-02-08T00:47:19.629Z,77.37
2018-02-08T00:49:54.421Z,78.00
2018-02-08T00:52:29.162Z,78.33
2018-02-08T00:55:03.874Z,78.42
2018-02-08T00:57:38.560Z,78.39
2018-02-08T01:00:13.803Z,78.46
2018-02-08T01:02:48.894Z,78.57
2018-02-08T01:05:24.302Z,78.45
2018-02-08T01:07:59.182Z,78.29
2018-02-08T01:10:34.237Z,78.27
2018-02-08T01:13:09.396Z,78.30
2018-02-08T01:15:44.720Z,78.39
2018-02-08T01:18:19.534Z,78.46
2018-02-08T01:20:54.292Z,78.46
2018-02-08T01:23:29.588Z,78.60
2018-02-08T01:26:04.858Z,78.87
2018-02-08T01:28:40.133Z,79.11
2018-02-08T01:31:15.529Z,79.22
2018-02-08T01:33:50.857Z,79.26
2018-02-08T01:36:26.246Z,79.41
2018-02-08T01:39:01.265Z,79.94
2018-02-08T01:41:35.974Z,80.04
2018-02-08T01:44:10.926Z,80.02
2018-02-08T01:46:46.158Z,80.17
2018-02-08T01:49:32.442Z,80.42
2018-02-08T01:52:07.113Z,80.45
2018-02-08T01:54:42.534Z,81.00
2018-02-08T01:57:17.705Z,81.59
2018-02-08T01:59:53.222Z,81.82
2018-02-08T02:02:28.050Z,81.64
2018-02-08T02:05:03.702Z,81.63
2018-02-08T02:07:39.269Z,81.52
2018-02-08T02:10:14.801Z,81.44
2018-02-08T02:12:50.063Z,81.32
2018-02-08T02:15:25.376Z,81.20
2018-02-08T02:18:00.621Z,81.20
2018-02-08T02:20:35.482Z,81.28
2018-02-08T02:23:10.286Z,81.35
2018-02-08T02:25:45.674Z,81.38
2018-02-08T02:28:21.231Z,81.47
2018-02-08T02:30:56.666Z,81.42
2018-02-08T02:33:32.366Z,81.14
2018-02-08T02:36:07.755Z,81.11
2018-02-08T02:38:43.399Z,81.12
2018-02-08T02:41:18.590Z,81.08
2018-02-08T02:43:53.555Z,81.09
2018-02-08T02:46:29.097Z,81.05
2018-02-08T02:49:04.561Z,80.91
2018-02-08T02:51:40.886Z,80.88
2018-02-08T02:54:15.751Z,80.88
2018-02-08T02:56:50.885Z,80.96
2018-02-08T02:59:25.913Z,81.06
2018-02-08T03:02:01.229Z,81.09
2018-02-08T03:04:37.045Z,81.07
2018-02-08T03:07:12.606Z,81.01
2018-02-08T03:09:47.801Z,81.07
2018-02-08T03:12:22.612Z,81.06
2018-02-08T03:14:57.786Z,81.08
2018-02-08T03:17:33.382Z,81.10
2018-02-08T03:20:08.670Z,81.04
2018-02-08T03:22:43.754Z,81.05
2018-02-08T03:25:19.344Z,81.15
2018-02-08T03:27:54.925Z,81.20
2018-02-08T03:30:29.995Z,81.33
2018-02-08T03:33:05.837Z,81.62
2018-02-08T03:35:40.712Z,81.58
2018-02-08T03:38:15.746Z,81.55
2018-02-08T03:40:51.022Z,81.60
2018-02-08T03:43:26.655Z,81.69
2018-02-08T03:46:01.901Z,81.76
2018-02-08T03:48:36.594Z,81.82
2018-02-08T03:51:12.154Z,81.94
2018-02-08T03:53:47.927Z,82.05
2018-02-08T03:56:23.272Z,82.12
2018-02-08T03:58:58.897Z,82.16
2018-02-08T04:01:34.005Z,82.27
2018-02-08T04:04:09.275Z,82.35
2018-02-08T04:06:44.650Z,82.36
2018-02-08T04:09:19.585Z,82.43
2018-02-08T04:11:55.059Z,82.44
2018-02-08T04:14:30.133Z,82.48
2018-02-08T04:17:05.106Z,82.67
2018-02-08T04:19:40.458Z,82.92
2018-02-08T04:22:15.637Z,83.01
2018-02-08T04:24:51.001Z,83.09
2018-02-08T04:27:26.542Z,83.26
2018-02-08T04:30:02.138Z,83.38
2018-02-08T04:32:37.158Z,83.65
2018-02-08T04:35:11.962Z,84.02
2018-02-08T04:37:47.296Z,84.19
2018-02-08T04:53:51.907Z,84.79
2018-02-08T04:56:27.042Z,84.77
2018-02-08T04:59:01.947Z,84.58
2018-02-08T05:01:36.465Z,84.43
2018-02-08T05:04:11.462Z,84.38
2018-02-08T05:06:46.417Z,84.32
2018-02-08T05:09:21.434Z,84.21
2018-02-08T05:11:56.369Z,84.15
2018-02-08T05:14:31.310Z,84.17
2018-02-08T05:17:06.322Z,84.24
2018-02-08T05:19:41.918Z,84.38
2018-02-08T05:22:16.918Z,84.52
2018-02-08T05:24:51.837Z,84.59
2018-02-08T05:27:26.913Z,84.58
2018-02-08T05:30:01.845Z,84.53
2018-02-08T05:32:36.239Z,84.80
2018-02-08T05:35:11.163Z,84.97
2018-02-08T05:37:46.054Z,85.17
2018-02-08T05:40:20.857Z,85.25
2018-02-08T05:42:55.654Z,85.27
2018-02-08T05:45:30.594Z,85.19
2018-02-08T05:48:05.505Z,85.07
2018-02-08T05:50:40.375Z,85.00
2018-02-08T05:53:15.306Z,84.94
2018-02-08T05:55:50.173Z,84.94
2018-02-08T05:58:25.042Z,84.91
2018-02-08T06:00:59.948Z,84.89
2018-02-08T06:03:34.739Z,84.91
2018-02-08T06:06:09.138Z,85.00
2018-02-08T06:08:44.515Z,84.88
2018-02-08T06:11:19.425Z,84.74
2018-02-08T06:13:54.301Z,84.73
2018-02-08T06:16:29.277Z,84.81
2018-02-08T06:19:04.442Z,84.97
2018-02-08T06:21:39.375Z,85.25
2018-02-08T06:24:14.386Z,85.58
2018-02-08T06:26:49.127Z,86.04
2018-02-08T06:29:24.254Z,86.56
2018-02-08T06:31:59.070Z,86.73
2018-02-08T06:34:34.029Z,86.77
2018-02-08T06:37:09.141Z,86.72
2018-02-08T06:39:44.412Z,86.58
2018-02-08T06:42:19.385Z,86.34
2018-02-08T06:44:54.475Z,86.22
2018-02-08T06:47:29.500Z,86.11
2018-02-08T06:50:04.371Z,85.89
2018-02-08T06:52:40.246Z,85.79
2018-02-08T06:55:15.114Z,85.74
2018-02-08T06:57:50.158Z,85.69
2018-02-08T07:00:25.099Z,85.55
2018-02-08T07:03:00.042Z,85.30
2018-02-08T07:05:34.940Z,85.20
2018-02-08T07:08:10.791Z,84.95
2018-02-08T07:10:45.702Z,85.15
2018-02-08T07:13:20.921Z,85.87
2018-02-08T07:15:55.814Z,86.30
2018-02-08T07:18:31.742Z,86.71
2018-02-08T07:21:06.649Z,86.79
2018-02-08T07:23:41.431Z,86.87
2018-02-08T07:26:16.266Z,86.91
2018-02-08T07:28:50.986Z,87.04
2018-02-08T07:31:26.847Z,87.18
2018-02-08T07:34:01.923Z,87.34
2018-02-08T07:36:36.926Z,87.49
2018-02-08T07:39:12.006Z,87.52
2018-02-08T07:41:47.091Z,87.33
2018-02-08T07:44:21.896Z,87.04
2018-02-08T07:46:56.875Z,86.95
2018-02-08T07:49:31.838Z,86.98
2018-02-08T07:52:06.754Z,87.11
2018-02-08T07:54:41.549Z,87.27
2018-02-08T07:57:16.634Z,87.37
2018-02-08T07:59:51.363Z,87.43
2018-02-08T08:02:27.167Z,87.43
2018-02-08T08:05:02.146Z,87.31
2018-02-08T08:07:37.046Z,87.12
2018-02-08T08:10:11.827Z,87.08
2018-02-08T08:12:47.052Z,86.92
2018-02-08T08:15:21.780Z,86.61
2018-02-08T08:17:56.918Z,86.39
2018-02-08T08:20:31.651Z,86.06
2018-02-08T08:23:06.482Z,85.34
2018-02-08T08:25:41.455Z,84.70
2018-02-08T08:28:16.331Z,84.15
2018-02-08T08:30:51.301Z,83.90
2018-02-08T08:33:25.979Z,83.57
2018-02-08T08:36:01.042Z,82.93
2018-02-08T08:38:35.895Z,82.20
2018-02-08T08:41:10.713Z,81.94
2018-02-08T08:43:45.539Z,81.36
2018-02-08T08:46:20.667Z,81.30
2018-02-08T08:48:55.607Z,81.16
2018-02-08T08:51:30.762Z,81.06
2018-02-08T08:54:05.370Z,80.54
2018-02-08T08:56:40.486Z,79.60
2018-02-08T08:59:15.238Z,78.81
2018-02-08T09:01:50.245Z,78.11
2018-02-08T09:04:24.928Z,78.16
2018-02-08T09:06:59.623Z,78.32
2018-02-08T09:09:34.374Z,78.26
2018-02-08T09:12:09.369Z,77.42
2018-02-08T09:14:44.393Z,77.02
2018-02-08T09:17:19.270Z,75.61
2018-02-08T09:19:54.081Z,73.72
2018-02-08T09:22:28.881Z,74.55
2018-02-08T09:25:03.557Z,73.63
2018-02-08T09:27:38.257Z,73.09
2018-02-08T09:30:12.942Z,72.62
2018-02-08T09:32:47.713Z,72.67
2018-02-08T09:35:22.466Z,70.10
2018-02-08T09:37:57.260Z,69.84
2018-02-08T09:40:31.997Z,70.81
2018-02-08T09:43:06.855Z,70.47
2018-02-08T09:45:41.942Z,69.76
2018-02-08T09:48:16.377Z,69.41
2018-02-08T09:50:51.170Z,68.74
2018-02-08T09:53:26.153Z,68.27
2018-02-08T09:56:01.207Z,67.83
2018-02-08T09:58:35.961Z,67.64
2018-02-08T10:01:10.959Z,66.63
2018-02-08T10:03:45.829Z,65.96
2018-02-08T10:06:21.398Z,65.62
2018-02-08T10:08:55.833Z,65.15
2018-02-08T10:11:30.715Z,65.02
2018-02-08T10:14:05.818Z,63.62
2018-02-08T10:16:40.522Z,62.69
2018-02-08T10:19:15.603Z,61.82
2018-02-08T10:21:50.632Z,62.14
2018-02-08T10:24:25.677Z,62.01
2018-02-08T10:27:00.549Z,62.12
2018-02-08T10:29:35.642Z,60.04
2018-02-08T10:32:10.322Z,59.90
2018-02-08T10:34:45.190Z,60.11
2018-02-08T10:37:19.984Z,59.31
2018-02-08T10:39:54.880Z,58.92
2018-02-08T10:42:29.812Z,58.82
2018-02-08T10:45:04.432Z,58.43
2018-02-08T10:47:39.622Z,58.65
2018-02-08T10:50:14.515Z,59.23
2018-02-08T10:52:49.378Z,59.90
2018-02-08T10:55:24.361Z,60.78
2018-02-08T10:57:59.335Z,59.55
2018-02-08T11:00:34.318Z,59.87
2018-02-08T11:03:09.199Z,59.42
2018-02-08T11:05:44.098Z,57.86
2018-02-08T11:08:19.251Z,56.56
2018-02-08T11:10:54.164Z,56.78
2018-02-08T11:13:29.372Z,55.43
2018-02-08T11:16:04.345Z,54.96
2018-02-08T11:18:38.814Z,55.19
2018-02-08T11:21:13.890Z,54.66
2018-02-08T11:23:48.806Z,54.23
2018-02-08T11:26:23.665Z,54.47
2018-02-08T11:28:58.466Z,54.75
2018-02-08T11:31:33.434Z,54.08
2018-02-08T11:34:08.351Z,53.63
2018-02-08T11:36:43.397Z,54.06
2018-02-08T11:39:18.161Z,54.01
2018-02-08T11:41:53.095Z,53.01
2018-02-08T11:44:27.986Z,53.48
2018-02-08T11:47:03.057Z,53.33
2018-02-08T11:49:38.077Z,53.40
2018-02-08T11:52:13.149Z,53.87
2018-02-08T11:54:48.101Z,54.33
2018-02-08T11:57:23.005Z,53.62
2018-02-08T11:59:57.932Z,53.41
2018-02-08T12:02:32.840Z,53.13
2018-02-08T12:05:07.890Z,52.86
2018-02-08T12:07:42.377Z,52.61
2018-02-08T12:10:17.518Z,52.44
2018-02-08T12:12:52.487Z,51.99
2018-02-08T12:15:27.524Z,51.44
2018-02-08T12:18:02.693Z,49.85
2018-02-08T12:20:37.605Z,50.34
2018-02-08T12:23:12.798Z,50.88
2018-02-08T12:25:47.367Z,50.86
2018-02-08T12:28:22.042Z,51.12
2018-02-08T12:30:56.930Z,51.19
2018-02-08T12:33:31.463Z,50.83
2018-02-08T12:36:06.445Z,50.52
2018-02-08T12:38:41.354Z,51.17
2018-02-08T12:41:16.234Z,51.48
2018-02-08T12:43:51.029Z,51.60
2018-02-08T12:46:25.966Z,50.12
2018-02-08T12:49:00.837Z,50.36
2018-02-08T12:51:35.855Z,50.58
2018-02-08T12:54:10.822Z,50.88
2018-02-08T12:56:45.811Z,50.76
2018-02-08T12:59:20.848Z,50.81
2018-02-08T13:01:55.786Z,51.48
2018-02-08T13:04:30.486Z,52.83
2018-02-08T13:07:05.437Z,53.96
2018-02-08T13:09:40.419Z,53.02
2018-02-08T13:12:15.430Z,53.28
2018-02-08T13:14:50.398Z,52.99
2018-02-08T13:17:25.377Z,52.17
2018-02-08T13:20:00.357Z,51.32
2018-02-08T13:22:35.406Z,51.11
2018-02-08T13:25:10.234Z,50.96
2018-02-08T13:27:45.418Z,51.27
2018-02-08T13:30:20.401Z,51.27
2018-02-08T13:32:55.528Z,51.76
2018-02-08T13:35:30.754Z,51.98
2018-02-08T13:38:05.645Z,50.55
2018-02-08T13:40:45.003Z,50.20
2018-02-08T13:43:19.537Z,50.25
2018-02-08T13:45:54.706Z,49.79
2018-02-08T13:48:31.428Z,49.14
2018-02-08T14:04:39.013Z,49.61
2018-02-08T14:07:13.864Z,50.51
2018-02-08T14:09:48.634Z,51.01
2018-02-08T14:12:23.610Z,51.60
2018-02-08T14:14:58.576Z,52.24
2018-02-08T14:17:33.747Z,52.03
2018-02-08T14:20:08.842Z,51.15
2018-02-08T14:22:43.798Z,50.99
2018-02-08T14:25:18.561Z,51.04
2018-02-08T14:27:53.631Z,51.61
2018-02-08T14:30:28.561Z,51.64
2018-02-08T14:33:03.634Z,53.06
2018-02-08T14:35:38.765Z,53.12
2018-02-08T14:38:13.462Z,53.76
2018-02-08T14:40:48.223Z,53.94
2018-02-08T14:43:22.970Z,54.54
2018-02-08T14:45:57.878Z,55.26
2018-02-08T14:48:32.810Z,55.05
2018-02-08T14:51:07.778Z,55.67
2018-02-08T14:53:42.790Z,56.89
2018-02-08T14:56:17.730Z,56.38
2018-02-08T14:58:52.799Z,56.75
2018-02-08T15:01:27.617Z,57.44
2018-02-08T15:04:02.645Z,57.42
2018-02-08T15:06:37.734Z,57.93
2018-02-08T15:09:12.664Z,57.49
2018-02-08T15:11:47.624Z,57.68
2018-02-08T15:14:22.394Z,58.36
2018-02-08T15:16:57.282Z,59.90
2018-02-08T15:19:32.055Z,60.14
2018-02-08T15:22:07.194Z,60.26
2018-02-08T15:24:42.197Z,60.68
2018-02-08T15:27:17.195Z,61.23
2018-02-08T15:29:51.973Z,61.59
2018-02-08T15:32:26.920Z,61.49
2018-02-08T15:35:01.664Z,61.63
2018-02-08T15:37:36.665Z,62.19
2018-02-08T15:40:11.416Z,62.19
2018-02-08T15:42:46.334Z,62.41
2018-02-08T15:45:21.353Z,62.13
2018-02-08T15:47:56.202Z,61.99
2018-02-08T15:50:31.018Z,61.91
2018-02-08T15:53:05.870Z,61.89
2018-02-08T15:55:40.214Z,62.22
2018-02-08T15:58:15.108Z,62.27
2018-02-08T16:00:49.703Z,62.52
2018-02-08T16:03:24.542Z,62.64
2018-02-08T16:05:59.630Z,62.91
2018-02-08T16:08:34.437Z,62.87
2018-02-08T16:11:09.162Z,63.16
2018-02-08T16:13:43.932Z,63.35
2018-02-08T16:16:18.568Z,63.72
2018-02-08T16:18:53.455Z,64.14
2018-02-08T16:21:28.162Z,64.19
2018-02-08T16:24:02.963Z,64.23
2018-02-08T16:26:37.925Z,64.51
2018-02-08T16:29:12.694Z,65.12
2018-02-08T16:31:47.638Z,65.12
2018-02-08T16:34:22.526Z,65.16
2018-02-08T16:36:57.466Z,64.98
2018-02-08T16:39:32.375Z,65.32
2018-02-08T16:42:07.135Z,65.88
2018-02-08T16:44:42.068Z,66.34
2018-02-08T16:47:16.957Z,66.85
2018-02-08T16:49:51.726Z,68.13
2018-02-08T16:52:26.102Z,68.97
2018-02-08T16:55:01.108Z,69.87
2018-02-08T16:57:36.076Z,70.52
2018-02-08T17:00:10.788Z,70.79
2018-02-08T17:02:45.566Z,70.94
2018-02-08T17:05:20.197Z,71.16
2018-02-08T17:07:54.989Z,71.17
2018-02-08T17:10:29.870Z,71.36
2018-02-08T17:13:04.246Z,72.04
2018-02-08T17:15:39.227Z,72.38
2018-02-08T17:18:13.967Z,72.52
2018-02-08T17:20:48.713Z,72.42
2018-02-08T17:23:23.565Z,72.01
2018-02-08T17:25:58.382Z,71.97
2018-02-08T17:28:33.041Z,71.83
2018-02-08T17:31:07.828Z,71.63
2018-02-08T17:33:42.610Z,71.46
2018-02-08T17:36:17.385Z,71.41
2018-02-08T17:38:52.065Z,71.61
2018-02-08T17:41:27.137Z,71.42
2018-02-08T17:44:01.971Z,71.26
2018-02-08T17:46:36.764Z,71.52
2018-02-08T17:49:11.690Z,71.70
2018-02-08T17:51:46.302Z,71.80
2018-02-08T17:54:21.104Z,71.79
2018-02-08T17:56:56.124Z,71.82
2018-02-08T17:59:30.830Z,72.12
2018-02-08T18:02:05.653Z,72.34
2018-02-08T18:04:40.377Z,72.69
2018-02-08T18:07:15.269Z,73.18
2018-02-08T18:09:50.178Z,73.33
2018-02-08T18:12:24.982Z,73.62
2018-02-08T18:14:59.768Z,73.78
2018-02-08T18:17:34.764Z,73.97
2018-02-08T18:20:09.499Z,74.21
2018-02-08T18:22:44.395Z,74.23
2018-02-08T18:25:19.000Z,74.42
2018-02-08T18:27:53.782Z,74.67
2018-02-08T18:30:28.598Z,74.72
2018-02-08T18:33:03.320Z,74.62
2018-02-08T18:35:38.228Z,74.60
2018-02-08T18:38:13.115Z,74.69
2018-02-08T18:40:48.083Z,74.95
2018-02-08T18:43:22.865Z,75.18
2018-02-08T18:45:57.903Z,75.40
2018-02-08T18:48:32.586Z,75.66
2018-02-08T18:51:07.371Z,76.05
2018-02-08T18:53:42.261Z,76.15
2018-02-08T18:56:17.146Z,76.02
2018-02-08T18:58:52.435Z,76.09
2018-02-08T19:01:27.278Z,76.36
2018-02-08T19:04:02.015Z,76.25
2018-02-08T19:06:36.830Z,76.36
2018-02-08T19:09:11.489Z,76.37
2018-02-08T19:11:46.193Z,76.48
2018-02-08T19:14:21.042Z,76.51
2018-02-08T19:16:55.972Z,76.55
2018-02-08T19:19:30.817Z,76.63
2018-02-08T19:22:05.692Z,76.73
2018-02-08T19:24:40.558Z,77.08
2018-02-08T19:27:15.389Z,87.33
2018-02-08T19:29:50.124Z,86.23
2018-02-08T19:32:25.458Z,84.85
2018-02-08T19:35:00.398Z,83.31
2018-02-08T19:37:35.142Z,82.83
2018-02-08T19:40:09.968Z,82.59
2018-02-08T19:42:45.427Z,82.69
2018-02-08T19:45:20.112Z,82.26
2018-02-08T19:47:55.078Z,81.87
2018-02-08T19:50:29.559Z,79.24
2018-02-08T19:53:04.206Z,78.43
2018-02-08T19:55:39.314Z,78.05
2018-02-08T19:58:13.988Z,77.88
2018-02-08T20:00:48.983Z,77.79
2018-02-08T20:03:23.722Z,77.89
2018-02-08T20:05:58.841Z,77.92
2018-02-08T20:08:33.595Z,78.12
2018-02-08T20:11:08.419Z,78.16
2018-02-08T20:13:43.386Z,78.25
2018-02-08T20:16:18.074Z,78.38
2018-02-08T20:18:53.242Z,78.76
2018-02-08T20:21:28.203Z,79.24
2018-02-08T20:24:03.186Z,79.42
2018-02-08T20:26:38.010Z,79.67
2018-02-08T20:29:12.729Z,79.80
2018-02-08T20:31:47.324Z,79.64
2018-02-08T20:34:22.101Z,79.62
2018-02-08T20:37:01.738Z,79.67
2018-02-08T20:39:36.868Z,79.99
2018-02-08T20:42:17.094Z,80.18
2018-02-08T20:44:51.495Z,80.27
2018-02-08T20:47:26.513Z,80.27
2018-02-08T20:50:04.902Z,80.32
2018-02-08T20:52:39.275Z,80.62
2018-02-08T20:55:27.242Z,80.99
2018-02-08T20:58:11.122Z,81.06
2018-02-08T21:00:45.978Z,81.22
2018-02-08T21:03:21.309Z,81.44
2018-02-08T21:05:56.915Z,81.94
2018-02-08T21:08:31.977Z,81.84
2018-02-08T21:11:07.257Z,81.75
2018-02-08T21:13:42.211Z,81.69
2018-02-08T21:16:17.301Z,81.81
2018-02-08T21:18:52.320Z,81.83
2018-02-08T21:21:27.462Z,81.91
2018-02-08T21:24:02.089Z,82.05
2018-02-08T21:26:37.074Z,82.30
2018-02-08T21:29:12.378Z,82.50
2018-02-08T21:31:47.534Z,82.33
2018-02-08T21:34:22.507Z,82.31
2018-02-08T21:36:57.850Z,82.41
2018-02-08T21:39:32.525Z,82.26
2018-02-08T21:42:07.671Z,82.11
2018-02-08T21:44:42.814Z,81.91
2018-02-08T21:47:17.688Z,81.95
2018-02-08T21:49:52.752Z,82.03
2018-02-08T21:52:27.742Z,82.02
2018-02-08T21:55:03.108Z,81.92
2018-02-08T21:57:38.623Z,81.89
2018-02-08T22:00:13.550Z,82.01
2018-02-08T22:02:48.874Z,81.99
2018-02-08T22:05:23.616Z,81.87
2018-02-08T22:07:58.613Z,81.71
2018-02-08T22:10:33.836Z,81.81
2018-02-08T22:13:09.304Z,81.90
2018-02-08T22:15:44.435Z,81.86
2018-02-08T22:18:19.534Z,81.80
2018-02-08T22:20:54.515Z,82.20
2018-02-08T22:23:29.376Z,82.48
2018-02-08T22:26:04.402Z,82.92
2018-02-08T22:28:39.518Z,83.24
2018-02-08T22:31:14.881Z,83.26
2018-02-08T22:33:50.133Z,83.51
2018-02-08T22:36:25.618Z,84.10
2018-02-08T22:39:00.174Z,84.50
2018-02-08T22:41:35.445Z,84.86
2018-02-08T22:44:10.366Z,85.05
2018-02-08T22:46:45.501Z,85.15
2018-02-08T22:49:20.574Z,85.10
2018-02-08T22:51:56.174Z,85.04
2018-02-08T22:54:31.217Z,85.17
2018-02-08T22:57:06.358Z,85.28
2018-02-08T22:59:41.683Z,85.52
2018-02-08T23:02:16.383Z,85.80
2018-02-08T23:04:51.242Z,85.85
2018-02-08T23:07:26.218Z,85.69
2018-02-08T23:10:01.247Z,85.65
2018-02-08T23:12:36.346Z,85.67
2018-02-08T23:15:11.325Z,85.63
2018-02-08T23:17:45.695Z,85.60
2018-02-08T23:20:20.785Z,86.00
2018-02-08T23:22:55.473Z,86.25
2018-02-08T23:25:30.554Z,86.28
2018-02-08T23:28:05.343Z,86.11
2018-02-08T23:30:40.617Z,85.94
2018-02-08T23:33:15.790Z,85.83
2018-02-08T23:35:50.769Z,85.71
2018-02-08T23:38:25.773Z,85.72
2018-02-08T23:41:01.341Z,85.66
2018-02-08T23:43:36.499Z,85.77
2018-02-08T23:46:11.502Z,85.72
2018-02-08T23:48:46.506Z,85.63
2018-02-08T23:51:21.217Z,85.54
2018-02-08T23:53:56.393Z,85.53
2018-02-08T23:56:31.673Z,85.47
2018-02-08T23:59:06.366Z,85.46
